createdAt,value
2018-08-24T00:01:44.528Z,19.08
2018-08-24T00:04:13.544Z,19.06
2018-08-24T00:06:42.615Z,18.98
2018-08-24T00:09:13.931Z,18.96
2018-08-24T00:11:44.576Z,18.98
2018-08-24T00:14:13.580Z,18.98
2018-08-24T00:16:42.851Z,18.84
2018-08-24T00:19:13.179Z,18.72
2018-08-24T00:21:44.190Z,18.72
2018-08-24T00:24:13.961Z,18.67
2018-08-24T00:26:42.983Z,18.84
2018-08-24T00:29:12.274Z,18.80
2018-08-24T00:31:42.474Z,18.87
2018-08-24T00:34:11.474Z,18.84
2018-08-24T00:36:40.503Z,18.89
2018-08-24T00:39:09.751Z,18.98
2018-08-24T00:41:40.247Z,19.03
2018-08-24T00:44:09.275Z,18.93
2018-08-24T00:46:38.307Z,19.01
2018-08-24T00:49:08.122Z,18.99
2018-08-24T00:51:37.166Z,19.01
2018-08-24T00:54:06.172Z,19.01
2018-08-24T00:56:35.236Z,18.96
2018-08-24T00:59:04.255Z,18.99
2018-08-24T01:01:33.248Z,18.99
2018-08-24T01:04:02.267Z,18.95
2018-08-24T01:06:31.257Z,18.95
2018-08-24T01:09:00.263Z,18.88
2018-08-24T01:11:34.797Z,18.88
2018-08-24T01:14:04.031Z,18.83
2018-08-24T01:17:42.401Z,18.80
2018-08-24T01:20:11.428Z,18.68
2018-08-24T01:22:40.423Z,18.59
2018-08-24T01:25:09.423Z,18.55
2018-08-24T01:27:38.459Z,18.56
2018-08-24T01:30:07.470Z,18.46
2018-08-24T01:32:36.447Z,18.48
2018-08-24T01:35:05.470Z,18.43
2018-08-24T01:37:34.484Z,18.45
2018-08-24T01:40:03.506Z,18.48
2018-08-24T01:42:32.499Z,18.41
2018-08-24T01:45:01.509Z,18.43
2018-08-24T01:47:30.532Z,18.32
2018-08-24T01:49:59.527Z,18.43
2018-08-24T01:52:28.562Z,18.37
2018-08-24T01:54:57.555Z,18.42
2018-08-24T01:57:26.696Z,18.38
2018-08-24T01:59:55.719Z,18.35
2018-08-24T02:02:24.723Z,18.25
2018-08-24T02:04:53.802Z,18.28
2018-08-24T02:07:22.806Z,18.32
2018-08-24T02:09:51.794Z,18.22
2018-08-24T02:12:26.209Z,18.20
2018-08-24T02:14:55.215Z,18.13
2018-08-24T02:17:29.694Z,18.14
2018-08-24T02:20:04.192Z,18.12
2018-08-24T02:22:33.242Z,18.09
2018-08-24T02:25:02.243Z,18.12
2018-08-24T02:27:31.228Z,18.07
2018-08-24T02:30:00.345Z,18.05
2018-08-24T02:32:29.336Z,18.00
2018-08-24T02:34:59.841Z,18.06
2018-08-24T02:37:29.754Z,18.08
2018-08-24T02:39:58.735Z,18.03
2018-08-24T02:42:27.743Z,18.01
2018-08-24T02:44:56.770Z,17.96
2018-08-24T02:47:25.828Z,17.89
2018-08-24T02:49:54.826Z,17.87
2018-08-24T02:52:24.008Z,17.82
2018-08-24T02:54:53.055Z,17.81
2018-08-24T02:57:22.160Z,17.81
2018-08-24T02:59:51.168Z,17.74
2018-08-24T03:02:20.218Z,17.73
2018-08-24T03:04:49.245Z,17.69
2018-08-24T03:07:18.255Z,17.69
2018-08-24T03:09:47.250Z,17.65
2018-08-24T03:12:16.263Z,17.65
2018-08-24T03:14:45.591Z,17.62
2018-08-24T03:17:20.081Z,17.59
2018-08-24T03:19:49.112Z,17.56
2018-08-24T03:22:18.125Z,17.54
2018-08-24T03:24:47.518Z,17.49
2018-08-24T03:27:16.595Z,17.54
2018-08-24T03:29:45.619Z,17.57
2018-08-24T03:32:14.616Z,17.54
2018-08-24T03:34:43.710Z,17.52
2018-08-24T03:37:12.788Z,17.58
2018-08-24T03:39:41.822Z,17.52
2018-08-24T03:42:11.556Z,17.45
2018-08-24T03:44:40.568Z,17.47
2018-08-24T03:47:09.583Z,17.52
2018-08-24T03:49:38.628Z,17.49
2018-08-24T03:52:07.628Z,17.51
2018-08-24T03:54:36.652Z,17.47
2018-08-24T03:57:05.639Z,17.46
2018-08-24T03:59:34.643Z,17.40
2018-08-24T04:02:05.385Z,17.39
2018-08-24T04:04:34.427Z,17.37
2018-08-24T04:07:03.478Z,17.35
2018-08-24T04:09:32.583Z,17.30
2018-08-24T04:12:01.576Z,17.32
2018-08-24T04:14:30.615Z,17.29
2018-08-24T04:18:06.871Z,17.29
2018-08-24T04:20:35.907Z,17.28
2018-08-24T04:25:40.554Z,17.42
2018-08-24T04:28:09.503Z,17.39
2018-08-24T04:30:38.504Z,17.32
2018-08-24T04:33:07.812Z,17.29
2018-08-24T04:35:36.805Z,17.33
2018-08-24T04:38:05.933Z,17.33
2018-08-24T04:40:34.969Z,17.34
2018-08-24T04:43:03.943Z,17.32
2018-08-24T04:45:33.238Z,17.35
2018-08-24T04:48:02.186Z,17.33
2018-08-24T04:50:31.191Z,17.35
2018-08-24T04:53:00.223Z,17.38
2018-08-24T04:55:29.210Z,17.36
2018-08-24T04:57:58.271Z,17.40
2018-08-24T05:00:27.570Z,17.39
2018-08-24T05:02:56.606Z,17.45
2018-08-24T05:05:25.877Z,17.48
2018-08-24T05:07:54.912Z,17.48
2018-08-24T05:10:24.015Z,17.48
2018-08-24T05:12:53.044Z,17.54
2018-08-24T05:15:22.042Z,17.65
2018-08-24T05:17:51.037Z,17.67
2018-08-24T05:20:20.071Z,17.77
2018-08-24T05:22:49.233Z,17.85
2018-08-24T05:25:18.267Z,17.88
2018-08-24T05:27:47.297Z,18.08
2018-08-24T05:30:16.620Z,18.39
2018-08-24T05:32:45.608Z,18.52
2018-08-24T05:35:14.694Z,18.21
2018-08-24T05:37:43.708Z,18.15
2018-08-24T05:40:12.724Z,18.05
2018-08-24T05:42:41.768Z,18.37
2018-08-24T05:45:10.762Z,18.49
2018-08-24T05:47:39.784Z,18.37
2018-08-24T05:50:08.772Z,18.41
2018-08-24T05:52:37.887Z,18.29
2018-08-24T05:55:06.888Z,18.37
2018-08-24T05:57:35.939Z,18.35
2018-08-24T06:00:04.983Z,18.40
2018-08-24T06:02:33.994Z,18.41
2018-08-24T06:05:03.141Z,18.41
2018-08-24T06:07:32.167Z,18.40
2018-08-24T06:10:01.188Z,18.32
2018-08-24T06:12:30.219Z,18.36
2018-08-24T06:14:59.215Z,18.37
2018-08-24T06:17:33.483Z,18.42
2018-08-24T06:20:02.513Z,18.47
2018-08-24T06:22:31.547Z,18.52
2018-08-24T06:25:01.080Z,18.62
2018-08-24T06:27:30.088Z,18.72
2018-08-24T06:29:59.115Z,18.76
2018-08-24T06:32:28.132Z,18.86
2018-08-24T06:34:57.164Z,18.86
2018-08-24T06:37:26.456Z,18.94
2018-08-24T06:39:55.559Z,18.93
2018-08-24T06:42:24.584Z,18.99
2018-08-24T06:44:53.638Z,19.06
2018-08-24T06:47:22.753Z,19.15
2018-08-24T06:49:51.663Z,19.15
2018-08-24T06:52:20.835Z,19.35
2018-08-24T06:54:50.102Z,19.56
2018-08-24T06:57:19.139Z,19.79
2018-08-24T06:59:48.205Z,19.84
2018-08-24T07:02:17.189Z,19.78
2018-08-24T07:04:46.191Z,19.83
2018-08-24T07:07:15.230Z,19.70
2018-08-24T07:09:44.304Z,19.78
2018-08-24T07:12:14.190Z,19.87
2018-08-24T07:14:44.006Z,19.76
2018-08-24T07:17:13.106Z,19.83
2018-08-24T07:19:42.872Z,19.87
2018-08-24T07:22:11.872Z,19.82
2018-08-24T07:24:40.867Z,19.71
2018-08-24T07:27:09.964Z,19.73
2018-08-24T07:29:38.955Z,19.71
2018-08-24T07:32:07.949Z,19.78
2018-08-24T07:34:37.204Z,19.68
2018-08-24T07:37:06.294Z,19.60
2018-08-24T07:39:35.278Z,19.41
2018-08-24T07:42:05.539Z,19.36
2018-08-24T07:44:38.706Z,19.29
2018-08-24T07:47:07.736Z,19.33
2018-08-24T07:49:36.843Z,19.35
2018-08-24T07:52:06.031Z,19.35
2018-08-24T07:54:35.031Z,19.33
2018-08-24T07:57:04.071Z,19.29
2018-08-24T07:59:33.079Z,19.35
2018-08-24T08:02:02.120Z,19.42
2018-08-24T08:04:31.188Z,19.48
2018-08-24T08:07:00.235Z,19.51
2018-08-24T08:09:29.234Z,19.65
2018-08-24T08:12:00.097Z,19.69
2018-08-24T08:14:29.728Z,19.45
2018-08-24T08:17:01.230Z,19.28
2018-08-24T08:19:31.734Z,19.18
2018-08-24T08:22:01.300Z,19.08
2018-08-24T08:24:30.360Z,19.12
2018-08-24T08:26:59.353Z,19.20
2018-08-24T08:29:33.718Z,19.16
2018-08-24T08:32:02.986Z,19.16
2018-08-24T08:34:35.927Z,19.01
2018-08-24T08:37:04.959Z,19.06
2018-08-24T08:39:34.063Z,19.06
2018-08-24T08:42:03.139Z,19.00
2018-08-24T08:44:32.167Z,18.94
2018-08-24T08:47:01.190Z,18.96
2018-08-24T08:49:30.178Z,18.90
2018-08-24T08:51:59.205Z,18.87
2018-08-24T08:54:28.308Z,18.79
2018-08-24T08:56:57.334Z,18.78
2018-08-24T08:59:26.402Z,18.79
2018-08-24T09:01:55.825Z,18.73
2018-08-24T09:04:24.849Z,18.70
2018-08-24T09:06:53.943Z,18.66
2018-08-24T09:09:22.973Z,18.69
2018-08-24T09:11:51.966Z,18.55
2018-08-24T09:14:20.992Z,18.50
2018-08-24T09:16:49.999Z,18.50
2018-08-24T09:19:24.527Z,18.43
2018-08-24T09:21:58.843Z,18.23
2018-08-24T09:24:33.299Z,17.89
2018-08-24T09:27:07.561Z,17.30
2018-08-24T09:29:36.588Z,17.01
2018-08-24T09:32:05.661Z,16.73
2018-08-24T09:34:34.724Z,16.73
2018-08-24T09:37:08.022Z,16.64
2018-08-24T09:39:37.023Z,16.69
2018-08-24T09:42:06.067Z,16.56
2018-08-24T09:44:35.071Z,16.57
2018-08-24T09:47:09.769Z,16.50
2018-08-24T09:49:40.098Z,16.53
2018-08-24T09:52:14.507Z,16.67
2018-08-24T09:54:43.496Z,16.71
2018-08-24T09:57:12.607Z,16.75
2018-08-24T09:59:41.619Z,16.81
2018-08-24T10:02:15.811Z,16.80
2018-08-24T10:04:50.425Z,16.67
2018-08-24T10:07:24.760Z,16.59
2018-08-24T10:09:53.789Z,16.64
2018-08-24T10:12:22.846Z,16.77
2018-08-24T10:14:51.848Z,16.88
2018-08-24T10:17:25.483Z,16.98
2018-08-24T10:19:54.483Z,17.07
2018-08-24T10:22:23.578Z,17.20
2018-08-24T10:24:52.843Z,17.15
2018-08-24T10:27:21.810Z,17.30
2018-08-24T10:29:50.989Z,17.36
2018-08-24T10:32:19.831Z,17.28
2018-08-24T10:34:48.888Z,17.25
2018-08-24T10:37:17.899Z,17.34
2018-08-24T10:39:46.891Z,17.25
2018-08-24T10:42:15.923Z,17.18
2018-08-24T10:44:45.032Z,17.09
2018-08-24T10:47:14.049Z,17.02
2018-08-24T10:49:43.052Z,16.89
2018-08-24T10:52:12.047Z,16.74
2018-08-24T10:54:41.083Z,16.72
2018-08-24T10:57:10.116Z,16.65
2018-08-24T10:59:39.143Z,16.54
2018-08-24T11:02:08.231Z,16.51
2018-08-24T11:04:37.146Z,16.44
2018-08-24T11:07:06.455Z,16.52
2018-08-24T11:09:35.442Z,16.59
2018-08-24T11:12:04.428Z,16.61
2018-08-24T11:14:33.451Z,16.77
2018-08-24T11:17:02.535Z,16.86
2018-08-24T11:19:31.891Z,16.90
2018-08-24T11:22:01.014Z,17.04
2018-08-24T11:24:30.010Z,17.09
2018-08-24T11:26:59.133Z,17.19
2018-08-24T11:29:28.176Z,17.33
2018-08-24T11:31:57.116Z,17.40
2018-08-24T11:34:26.113Z,17.51
2018-08-24T11:36:55.259Z,17.71
2018-08-24T11:39:24.291Z,17.93
2018-08-24T11:41:53.375Z,18.07
2018-08-24T11:44:22.306Z,18.17
2018-08-24T11:46:51.330Z,18.22
2018-08-24T11:49:20.319Z,18.46
2018-08-24T11:51:49.307Z,18.54
2018-08-24T11:54:18.361Z,18.51
2018-08-24T11:56:47.360Z,18.62
2018-08-24T11:59:16.367Z,18.57
2018-08-24T12:01:45.405Z,18.76
2018-08-24T12:04:14.419Z,18.74
2018-08-24T12:06:43.412Z,18.72
2018-08-24T12:09:12.488Z,18.86
2018-08-24T12:11:41.481Z,18.76
2018-08-24T12:14:10.515Z,18.83
2018-08-24T12:16:39.511Z,18.90
2018-08-24T12:19:08.534Z,18.97
2018-08-24T12:21:37.653Z,18.97
2018-08-24T12:24:06.624Z,19.29
2018-08-24T12:26:35.637Z,19.33
2018-08-24T12:29:04.739Z,19.40
2018-08-24T12:31:33.814Z,19.52
2018-08-24T12:34:02.807Z,19.34
2018-08-24T12:36:31.819Z,19.41
2018-08-24T12:39:00.834Z,19.42
2018-08-24T12:41:29.831Z,19.61
2018-08-24T12:43:58.867Z,19.38
2018-08-24T12:46:27.863Z,19.63
2018-08-24T12:48:57.443Z,19.71
2018-08-24T12:51:26.700Z,19.77
2018-08-24T12:53:55.703Z,19.38
2018-08-24T12:56:24.719Z,19.32
2018-08-24T12:58:53.915Z,19.33
2018-08-24T13:01:22.959Z,19.11
2018-08-24T13:03:51.979Z,18.88
2018-08-24T13:06:20.989Z,19.01
2018-08-24T13:08:50.087Z,19.20
2018-08-24T13:11:19.216Z,19.36
2018-08-24T13:13:48.221Z,19.50
2018-08-24T13:16:17.248Z,19.24
2018-08-24T13:18:46.326Z,19.39
2018-08-24T13:21:15.346Z,19.23
2018-08-24T13:23:44.789Z,19.48
2018-08-24T13:26:13.783Z,19.53
2018-08-24T13:28:42.783Z,19.28
2018-08-24T13:31:11.808Z,19.53
2018-08-24T13:33:40.822Z,19.58
2018-08-24T13:36:09.847Z,19.59
2018-08-24T13:38:38.967Z,19.76
2018-08-24T13:41:07.989Z,19.77
2018-08-24T13:43:36.990Z,19.93
2018-08-24T13:46:06.015Z,19.90
2018-08-24T13:48:35.331Z,19.61
2018-08-24T13:51:04.323Z,19.62
2018-08-24T13:53:33.343Z,19.71
2018-08-24T13:56:02.333Z,19.58
2018-08-24T13:58:31.339Z,19.72
2018-08-24T14:01:00.639Z,19.74
2018-08-24T14:03:29.643Z,19.96
2018-08-24T14:05:58.625Z,20.01
2018-08-24T14:08:27.939Z,20.00
2018-08-24T14:10:56.991Z,20.05
2018-08-24T14:13:26.029Z,19.84
2018-08-24T14:15:55.099Z,19.77
2018-08-24T14:18:24.081Z,19.85
2018-08-24T14:20:53.173Z,20.01
2018-08-24T14:23:22.248Z,19.96
2018-08-24T14:25:51.408Z,19.91
2018-08-24T14:28:20.387Z,19.82
2018-08-24T14:30:49.498Z,19.81
2018-08-24T14:33:18.540Z,19.91
2018-08-24T14:35:47.519Z,19.98
2018-08-24T14:38:16.558Z,19.96
2018-08-24T14:40:45.515Z,19.80
2018-08-24T14:43:14.516Z,19.79
2018-08-24T14:45:43.684Z,19.74
2018-08-24T14:48:12.694Z,19.74
2018-08-24T14:50:41.687Z,19.67
2018-08-24T14:53:10.707Z,19.62
2018-08-24T14:55:40.131Z,19.52
2018-08-24T14:58:09.204Z,19.40
2018-08-24T15:00:38.280Z,19.54
2018-08-24T15:03:07.294Z,19.63
2018-08-24T15:05:36.387Z,19.61
2018-08-24T15:08:05.498Z,19.55
2018-08-24T15:10:34.483Z,19.47
2018-08-24T15:13:03.569Z,19.47
2018-08-24T15:15:32.571Z,19.50
2018-08-24T15:18:01.581Z,19.53
2018-08-24T15:20:30.567Z,19.58
2018-08-24T15:23:00.071Z,19.56
2018-08-24T15:25:29.127Z,19.53
2018-08-24T15:27:58.121Z,19.57
2018-08-24T15:30:27.135Z,19.61
2018-08-24T15:32:56.141Z,19.50
2018-08-24T15:35:25.150Z,19.51
2018-08-24T15:37:54.162Z,19.55
2018-08-24T15:40:23.193Z,19.61
2018-08-24T15:42:52.170Z,19.52
2018-08-24T15:45:21.375Z,19.58
2018-08-24T15:47:50.380Z,19.52
2018-08-24T15:50:19.355Z,19.52
2018-08-24T15:52:48.383Z,19.52
2018-08-24T15:55:18.251Z,19.40
2018-08-24T15:57:47.508Z,19.50
2018-08-24T16:00:16.592Z,19.50
2018-08-24T16:02:45.511Z,19.42
2018-08-24T16:05:14.527Z,19.44
2018-08-24T16:07:43.516Z,19.48
2018-08-24T16:10:12.572Z,19.44
2018-08-24T16:12:41.600Z,19.55
2018-08-24T16:15:10.679Z,19.66
2018-08-24T16:17:39.705Z,19.80
2018-08-24T16:20:08.702Z,19.79
2018-08-24T16:22:37.675Z,19.98
2018-08-24T16:25:06.705Z,20.02
2018-08-24T16:27:35.689Z,20.02
2018-08-24T16:30:04.702Z,19.94
2018-08-24T16:32:33.749Z,19.96
2018-08-24T16:35:02.827Z,19.91
2018-08-24T16:37:31.850Z,19.81
2018-08-24T16:40:00.828Z,19.78
2018-08-24T16:42:29.820Z,19.73
2018-08-24T16:44:58.842Z,19.63
2018-08-24T16:47:27.820Z,19.83
2018-08-24T16:49:56.836Z,19.65
2018-08-24T16:52:25.849Z,19.60
2018-08-24T16:54:54.887Z,19.61
2018-08-24T16:57:24.216Z,19.53
2018-08-24T16:59:53.205Z,19.59
2018-08-24T17:02:22.167Z,19.48
2018-08-24T17:04:51.248Z,19.57
2018-08-24T17:07:20.248Z,19.45
2018-08-24T17:09:49.389Z,19.36
2018-08-24T17:12:18.762Z,19.33
2018-08-24T17:14:47.775Z,19.30
2018-08-24T17:17:16.767Z,19.26
2018-08-24T17:19:45.803Z,19.35
2018-08-24T17:22:14.997Z,19.35
2018-08-24T17:24:43.943Z,19.34
2018-08-24T17:27:12.960Z,19.37
2018-08-24T17:29:41.951Z,19.45
2018-08-24T17:32:10.972Z,19.46
2018-08-24T17:34:39.959Z,19.38
2018-08-24T17:37:09.000Z,19.39
2018-08-24T17:39:38.019Z,19.44
2018-08-24T17:42:07.063Z,19.40
2018-08-24T17:44:36.063Z,19.28
2018-08-24T17:47:05.263Z,19.31
2018-08-24T17:49:34.311Z,19.35
2018-08-24T17:52:03.315Z,19.20
2018-08-24T17:54:32.331Z,19.18
2018-08-24T17:57:01.337Z,19.17
2018-08-24T17:59:30.365Z,19.15
2018-08-24T18:01:59.452Z,19.06
2018-08-24T18:04:28.444Z,19.05
2018-08-24T18:06:57.795Z,19.03
2018-08-24T18:09:26.814Z,18.96
2018-08-24T18:11:55.968Z,18.92
2018-08-24T18:14:25.263Z,18.91
2018-08-24T18:16:54.284Z,18.92
2018-08-24T18:19:23.275Z,18.97
2018-08-24T18:21:52.305Z,18.95
2018-08-24T18:24:21.478Z,18.88
2018-08-24T18:26:50.436Z,18.89
2018-08-24T18:29:19.479Z,18.87
2018-08-24T18:31:48.467Z,18.80
2018-08-24T18:34:17.519Z,18.72
2018-08-24T18:36:46.570Z,18.69
2018-08-24T18:39:15.544Z,18.67
2018-08-24T18:41:44.564Z,18.70
2018-08-24T18:44:13.553Z,18.71
2018-08-24T18:46:42.568Z,18.76
2018-08-24T18:49:11.583Z,18.66
2018-08-24T18:51:40.660Z,18.58
2018-08-24T18:54:09.635Z,18.56
2018-08-24T18:56:38.752Z,18.57
2018-08-24T18:59:08.039Z,18.46
2018-08-24T19:01:37.035Z,18.53
2018-08-24T19:04:06.052Z,18.48
2018-08-24T19:06:35.040Z,18.46
2018-08-24T19:09:06.283Z,18.46
2018-08-24T19:11:40.673Z,18.41
2018-08-24T19:14:09.916Z,18.41
2018-08-24T19:16:38.942Z,18.38
2018-08-24T19:19:14.427Z,18.35
2018-08-24T19:21:44.881Z,18.37
2018-08-24T19:24:14.007Z,18.33
2018-08-24T19:26:43.732Z,18.29
2018-08-24T19:29:18.071Z,18.18
2018-08-24T19:31:47.103Z,18.21
2018-08-24T19:34:16.130Z,18.14
2018-08-24T19:36:45.129Z,18.10
2018-08-24T19:39:15.031Z,18.21
2018-08-24T19:41:49.528Z,18.18
2018-08-24T19:44:18.547Z,18.13
2018-08-24T19:46:47.536Z,18.12
2018-08-24T19:49:18.721Z,18.09
2018-08-24T19:51:47.819Z,18.19
2018-08-24T19:54:17.456Z,18.23
2018-08-24T19:56:46.478Z,18.17
2018-08-24T19:59:16.721Z,18.10
2018-08-24T20:01:45.719Z,18.04
2018-08-24T20:04:14.716Z,18.10
2018-08-24T20:06:49.331Z,18.01
2018-08-24T20:09:23.755Z,17.92
2018-08-24T20:11:53.331Z,17.97
2018-08-24T20:14:27.664Z,18.04
2018-08-24T20:17:02.385Z,18.00
2018-08-24T20:19:31.446Z,17.94
2018-08-24T20:22:00.426Z,17.89
2018-08-24T20:24:29.607Z,17.87
2018-08-24T20:26:58.474Z,17.74
2018-08-24T20:29:27.479Z,17.73
2018-08-24T20:31:56.453Z,17.75
2018-08-24T20:34:25.500Z,17.69
2018-08-24T20:36:54.439Z,17.68
2018-08-24T20:39:23.515Z,17.61
2018-08-24T20:41:52.527Z,17.63
2018-08-24T20:44:21.503Z,17.64
2018-08-24T20:46:50.559Z,17.62
2018-08-24T20:49:19.555Z,17.51
2018-08-24T20:51:48.554Z,17.50
2018-08-24T20:54:17.567Z,17.37
2018-08-24T20:56:46.554Z,17.39
2018-08-24T20:59:15.558Z,17.28
2018-08-24T21:01:44.647Z,17.20
2018-08-24T21:04:13.679Z,17.11
2018-08-24T21:06:42.655Z,17.11
2018-08-24T21:09:11.650Z,17.09
2018-08-24T21:11:40.734Z,17.04
2018-08-24T21:14:09.741Z,17.08
2018-08-24T21:16:38.732Z,17.08
2018-08-24T21:19:08.391Z,17.02
2018-08-24T21:21:37.445Z,16.99
2018-08-24T21:24:06.699Z,16.89
2018-08-24T21:26:35.719Z,16.79
2018-08-24T21:29:04.715Z,16.68
2018-08-24T21:31:33.784Z,16.67
2018-08-24T21:34:03.759Z,16.60
2018-08-24T21:36:32.791Z,16.79
2018-08-24T21:39:01.883Z,16.73
2018-08-24T21:41:30.863Z,16.72
2018-08-24T21:43:59.876Z,16.79
2018-08-24T21:46:28.864Z,17.00
2018-08-24T21:48:57.868Z,17.14
2018-08-24T21:51:26.847Z,17.15
2018-08-24T21:53:55.864Z,17.18
2018-08-24T21:56:24.839Z,17.32
2018-08-24T21:58:53.817Z,17.29
2018-08-24T22:01:22.828Z,17.36
2018-08-24T22:03:51.931Z,17.39
2018-08-24T22:06:20.923Z,17.31
2018-08-24T22:08:49.927Z,17.30
2018-08-24T22:11:19.148Z,17.29
2018-08-24T22:13:48.288Z,17.20
2018-08-24T22:16:17.295Z,17.18
2018-08-24T22:18:46.278Z,17.16
2018-08-24T22:21:15.299Z,17.17
2018-08-24T22:23:44.275Z,17.01
2018-08-24T22:26:13.259Z,16.92
2018-08-24T22:28:42.547Z,16.94
2018-08-24T22:31:11.818Z,16.97
2018-08-24T22:33:40.803Z,16.96
2018-08-24T22:36:09.816Z,16.80
2018-08-24T22:38:38.812Z,16.60
2018-08-24T22:41:07.939Z,16.55
2018-08-24T22:43:39.418Z,16.45
2018-08-24T22:46:08.447Z,16.65
2018-08-24T22:48:37.487Z,16.59
2018-08-24T22:51:06.587Z,16.71
2018-08-24T22:53:35.560Z,16.77
2018-08-24T22:56:04.575Z,16.66
2018-08-24T22:58:33.551Z,16.65
2018-08-24T23:01:02.535Z,16.48
2018-08-24T23:03:31.535Z,16.46
2018-08-24T23:06:00.523Z,16.41
2018-08-24T23:08:29.502Z,16.35
2018-08-24T23:10:58.555Z,16.41
2018-08-24T23:13:27.532Z,16.37
2018-08-24T23:15:56.586Z,16.41
2018-08-24T23:18:25.579Z,16.36
2018-08-24T23:20:54.578Z,16.44
2018-08-24T23:23:23.583Z,16.38
2018-08-24T23:25:52.563Z,16.26
2018-08-24T23:28:21.543Z,16.04
2018-08-24T23:30:50.611Z,16.14
2018-08-24T23:33:19.575Z,16.13
2018-08-24T23:35:48.935Z,15.94
2018-08-24T23:38:17.923Z,15.96
2018-08-24T23:40:46.907Z,15.95
2018-08-24T23:43:15.949Z,15.72
2018-08-24T23:45:44.927Z,15.57
2018-08-24T23:48:13.952Z,15.55
2018-08-24T23:50:42.935Z,15.50
2018-08-24T23:53:12.013Z,15.28
2018-08-24T23:55:41.080Z,15.31
2018-08-24T23:58:10.020Z,15.19
